Terminal Aerodrome Forecast
Issued by NWS

Home | Current Version | Previous Version | Text Only | Print | Product List | Glossary On
Versions: 1 2 3 4 5 6 7 8 9 10 11 12 13 14
000
FTUS45 KRIW 131100
TAFCPR
TAF
KCPR 131124Z 1312/1412 04016KT P6SM VCSH SCT014 OVC030
     FM131400 04014KT 1SM -SN OVC010
     FM131700 03014G20KT 3SM -SN SCT008 OVC015
     FM132200 02013KT P6SM VCSH SCT020 BKN035
     FM140300 36007KT P6SM BKN050
     FM140900 24007KT P6SM SCT080=

USA.gov is the U.S. government's official web portal to all federal, state and local government web resources and services.